createdAt,value
2022-12-08T00:01:48.128Z,97565.38
2022-12-08T00:04:16.860Z,97557.78
2022-12-08T00:07:03.600Z,97556.09
2022-12-08T00:09:39.098Z,97559.50
2022-12-08T00:12:10.355Z,97570.47
2022-12-08T00:14:41.593Z,97563.69
2022-12-08T00:17:13.487Z,97564.56
2022-12-08T00:19:43.717Z,97541.69
2022-12-08T00:22:13.427Z,97556.06
2022-12-08T00:24:45.820Z,97553.50
2022-12-08T00:27:16.315Z,97549.28
2022-12-08T00:29:45.458Z,97552.69
2022-12-08T00:32:14.991Z,97550.16
2022-12-08T00:34:43.752Z,97537.47
2022-12-08T00:37:12.096Z,97548.47
2022-12-08T00:39:41.921Z,97557.72
2022-12-08T00:42:15.425Z,97549.28
2022-12-08T00:44:45.385Z,97548.47
2022-12-08T00:47:14.672Z,97553.53
2022-12-08T00:49:43.853Z,97533.25
2022-12-08T00:52:13.199Z,97532.41
2022-12-08T00:54:42.115Z,97549.31
2022-12-08T00:57:12.080Z,97552.69
2022-12-08T00:59:40.888Z,97542.56
2022-12-08T01:02:09.340Z,97537.47
2022-12-08T01:04:38.051Z,97540.88
2022-12-08T01:07:07.201Z,97537.47
2022-12-08T01:09:36.472Z,97540.88
2022-12-08T01:12:05.272Z,97553.56
2022-12-08T01:14:37.117Z,97556.09
2022-12-08T01:17:05.926Z,97547.66
2022-12-08T01:19:35.121Z,97546.81
2022-12-08T01:22:04.317Z,97552.72
2022-12-08T01:24:33.721Z,97552.72
2022-12-08T01:27:02.642Z,97549.38
2022-12-08T01:29:31.790Z,97544.28
2022-12-08T01:32:02.269Z,97548.50
2022-12-08T01:34:31.011Z,97537.50
2022-12-08T01:36:59.640Z,97551.03
2022-12-08T01:39:28.421Z,97557.75
2022-12-08T01:41:57.741Z,97540.84
2022-12-08T01:44:56.179Z,97545.06
2022-12-08T01:47:32.324Z,97536.59
2022-12-08T01:50:02.389Z,97547.56
2022-12-08T01:52:35.511Z,97540.78
2022-12-08T01:55:08.632Z,97527.25
2022-12-08T01:57:44.016Z,97536.56
2022-12-08T02:00:15.894Z,97534.00
2022-12-08T02:02:55.268Z,97539.03
2022-12-08T02:05:27.060Z,97535.66
2022-12-08T02:07:57.590Z,97536.47
2022-12-08T02:10:31.003Z,97528.84
2022-12-08T02:13:01.014Z,97522.03
2022-12-08T02:15:39.568Z,97521.16
2022-12-08T02:18:26.426Z,97526.19
2022-12-08T02:21:00.735Z,97521.94
2022-12-08T02:23:38.908Z,97499.09
2022-12-08T02:26:46.535Z,97504.09
2022-12-08T02:29:41.220Z,97506.69
2022-12-08T02:32:31.700Z,97504.16
2022-12-08T02:35:09.096Z,97488.09
2022-12-08T02:37:43.723Z,97504.97
2022-12-08T02:40:20.166Z,97501.59
2022-12-08T02:42:53.393Z,97502.41
2022-12-08T02:45:27.416Z,97498.25
2022-12-08T02:47:55.589Z,97495.63
2022-12-08T02:50:26.057Z,97496.47
2022-12-08T02:52:55.006Z,97488.81
2022-12-08T02:55:28.219Z,97471.06
2022-12-08T02:58:27.705Z,97489.59
2022-12-08T03:01:13.348Z,97484.50
2022-12-08T03:03:48.913Z,97451.53
2022-12-08T03:06:30.359Z,97473.50
2022-12-08T03:09:03.890Z,97461.59
2022-12-08T03:11:40.170Z,97462.44
2022-12-08T03:14:10.930Z,97470.88
2022-12-08T03:16:42.865Z,97476.81
2022-12-08T03:19:15.694Z,97469.28
2022-12-08T03:21:50.065Z,97470.94
2022-12-08T03:24:19.181Z,97467.56
2022-12-08T03:26:52.466Z,97443.06
2022-12-08T03:29:21.878Z,97459.16
2022-12-08T03:31:55.910Z,97436.38
2022-12-08T03:34:27.465Z,97456.69
2022-12-08T03:36:57.962Z,97457.59
2022-12-08T03:39:26.465Z,97450.03
2022-12-08T03:41:55.134Z,97456.88
2022-12-08T03:44:23.843Z,97452.63
2022-12-08T03:46:52.839Z,97461.16
2022-12-08T03:49:21.387Z,97448.56
2022-12-08T03:51:51.577Z,97446.06
2022-12-08T03:54:21.774Z,97432.59
2022-12-08T03:56:50.627Z,97427.53
2022-12-08T03:59:19.243Z,97428.44
2022-12-08T04:01:48.111Z,97429.28
2022-12-08T04:04:16.832Z,97425.88
2022-12-08T04:06:45.526Z,97426.75
2022-12-08T04:09:14.618Z,97429.28
2022-12-08T04:11:45.662Z,97431.81
2022-12-08T04:14:14.572Z,97425.09
2022-12-08T04:16:43.354Z,97415.81
2022-12-08T04:19:12.133Z,97415.78
2022-12-08T04:21:41.038Z,97408.19
2022-12-08T04:24:10.756Z,97418.31
2022-12-08T04:26:39.406Z,97422.53
2022-12-08T04:29:12.817Z,97421.69
2022-12-08T04:31:41.377Z,97418.34
2022-12-08T04:34:11.716Z,97410.75
2022-12-08T04:36:40.231Z,97409.03
2022-12-08T04:39:08.817Z,97412.44
2022-12-08T04:41:37.632Z,97411.56
2022-12-08T04:44:06.728Z,97412.41
2022-12-08T04:46:41.657Z,97409.03
2022-12-08T04:49:12.194Z,97406.50
2022-12-08T04:51:40.988Z,97417.50
2022-12-08T04:54:09.870Z,97407.34
2022-12-08T04:56:39.300Z,97403.13
2022-12-08T04:59:08.480Z,97387.94
2022-12-08T05:01:38.567Z,97403.97
2022-12-08T05:04:07.391Z,97416.63
2022-12-08T05:06:36.321Z,97396.38
2022-12-08T05:09:04.589Z,97402.31
2022-12-08T05:11:33.713Z,97404.88
2022-12-08T05:14:02.713Z,97395.56
2022-12-08T05:16:31.716Z,97415.84
2022-12-08T05:19:01.885Z,97399.78
2022-12-08T05:21:30.368Z,97403.16
2022-12-08T05:23:58.953Z,97397.25
2022-12-08T05:26:27.570Z,97403.19
2022-12-08T05:28:55.932Z,97398.13
2022-12-08T05:31:25.269Z,97395.59
2022-12-08T05:33:57.438Z,97408.25
2022-12-08T05:36:31.805Z,97393.03
2022-12-08T05:39:00.478Z,97404.03
2022-12-08T05:41:29.233Z,97400.66
2022-12-08T05:43:57.795Z,97403.19
2022-12-08T05:46:26.782Z,97402.34
2022-12-08T05:48:55.314Z,97406.56
2022-12-08T05:51:26.370Z,97398.13
2022-12-08T05:53:58.013Z,97402.34
2022-12-08T05:56:26.916Z,97391.41
2022-12-08T05:58:55.371Z,97390.53
2022-12-08T06:01:25.623Z,97399.81
2022-12-08T06:03:55.135Z,97390.53
2022-12-08T06:06:23.843Z,97392.22
2022-12-08T06:08:53.255Z,97397.31
2022-12-08T06:11:25.293Z,97395.59
2022-12-08T06:13:55.197Z,97412.50
2022-12-08T06:16:23.661Z,97404.03
2022-12-08T06:18:53.017Z,97395.59
2022-12-08T06:21:22.328Z,97393.91
2022-12-08T06:23:52.195Z,97392.25
2022-12-08T06:26:21.973Z,97398.97
2022-12-08T06:28:53.572Z,97389.72
2022-12-08T06:31:26.594Z,97393.91
2022-12-08T06:33:57.399Z,97389.69
2022-12-08T06:36:28.435Z,97390.53
2022-12-08T06:38:57.761Z,97392.22
2022-12-08T06:41:26.735Z,97401.50
2022-12-08T06:43:59.977Z,97401.50
2022-12-08T06:46:30.045Z,97398.97
2022-12-08T06:49:00.340Z,97404.91
2022-12-08T06:51:28.712Z,97404.88
2022-12-08T06:53:57.927Z,97403.19
2022-12-08T06:56:28.522Z,97409.13
2022-12-08T06:58:59.276Z,97393.91
2022-12-08T07:01:28.710Z,97415.00
2022-12-08T07:04:06.745Z,97410.81
2022-12-08T07:06:35.285Z,97408.28
2022-12-08T07:09:05.105Z,97411.66
2022-12-08T07:11:33.838Z,97408.25
2022-12-08T07:14:04.420Z,97419.25
2022-12-08T07:16:33.061Z,97422.63
2022-12-08T07:19:01.987Z,97422.59
2022-12-08T07:21:31.333Z,97422.63
2022-12-08T07:24:00.513Z,97422.63
2022-12-08T07:26:29.229Z,97413.31
2022-12-08T07:28:57.820Z,97409.09
2022-12-08T07:31:29.495Z,97417.53
2022-12-08T07:34:01.124Z,97413.31
2022-12-08T07:36:29.514Z,97412.47
2022-12-08T07:38:58.968Z,97398.97
2022-12-08T07:41:28.422Z,97404.88
2022-12-08T07:43:58.188Z,97415.84
2022-12-08T07:46:29.452Z,97416.69
2022-12-08T07:48:59.618Z,97416.72
2022-12-08T07:51:28.400Z,97411.66
2022-12-08T07:53:57.557Z,97417.56
2022-12-08T07:56:26.360Z,97402.38
2022-12-08T07:58:55.391Z,97401.50
2022-12-08T08:01:26.432Z,97404.91
2022-12-08T08:03:58.772Z,97407.44
2022-12-08T08:06:28.176Z,97409.13
2022-12-08T08:08:57.397Z,97402.38
2022-12-08T08:11:26.478Z,97389.72
2022-12-08T08:13:56.081Z,97409.13
2022-12-08T08:16:25.155Z,97409.13
2022-12-08T08:18:54.697Z,97407.44
2022-12-08T08:24:14.072Z,97402.34
2022-12-08T08:26:42.911Z,97404.91
2022-12-08T08:29:12.062Z,97404.88
2022-12-08T08:31:41.727Z,97404.88
2022-12-08T08:34:10.464Z,97411.66
2022-12-08T08:36:41.766Z,97414.19
2022-12-08T08:39:11.022Z,97412.47
2022-12-08T08:41:39.636Z,97416.72
2022-12-08T08:44:09.166Z,97419.25
2022-12-08T08:46:38.132Z,97415.00
2022-12-08T08:49:08.244Z,97417.53
2022-12-08T08:51:37.037Z,97411.63
2022-12-08T08:54:09.365Z,97400.69
2022-12-08T08:56:38.582Z,97409.13
2022-12-08T08:59:07.156Z,97421.75
2022-12-08T09:01:35.969Z,97408.25
2022-12-08T09:04:04.962Z,97415.03
2022-12-08T09:06:34.146Z,97419.22
2022-12-08T09:09:02.893Z,97410.78
2022-12-08T09:11:33.995Z,97408.25
2022-12-08T09:14:02.933Z,97413.28
2022-12-08T09:16:40.405Z,97394.72
2022-12-08T09:19:10.668Z,97411.56
2022-12-08T09:21:39.783Z,97398.91
2022-12-08T09:24:10.914Z,97403.97
2022-12-08T09:26:41.693Z,97403.09
2022-12-08T09:29:10.961Z,97403.91
2022-12-08T09:31:40.781Z,97395.41
2022-12-08T09:34:10.044Z,97392.06
2022-12-08T09:36:39.249Z,97398.81
2022-12-08T09:39:08.476Z,97396.25
2022-12-08T09:41:46.420Z,97395.41
2022-12-08T09:44:43.497Z,97387.81
2022-12-08T09:47:21.008Z,97385.25
2022-12-08T09:49:55.938Z,97384.34
2022-12-08T09:52:28.708Z,97378.41
2022-12-08T09:55:01.604Z,97377.50
2022-12-08T09:57:32.448Z,97369.97
2022-12-08T10:00:07.519Z,97376.69
2022-12-08T10:02:36.777Z,97366.53
2022-12-08T10:05:05.937Z,97356.31
2022-12-08T10:07:42.996Z,97357.97
2022-12-08T10:10:24.540Z,97357.88
2022-12-08T10:13:02.545Z,97356.22
2022-12-08T10:15:43.911Z,97352.78
2022-12-08T10:18:17.413Z,97346.91
2022-12-08T10:20:47.852Z,97351.97
2022-12-08T10:23:27.283Z,97338.41
2022-12-08T10:26:02.770Z,97338.41
2022-12-08T10:28:33.470Z,97342.59
2022-12-08T10:31:04.283Z,97326.59
2022-12-08T10:33:34.455Z,97339.19
2022-12-08T10:36:05.703Z,97339.09
2022-12-08T10:38:36.642Z,97329.66
2022-12-08T10:41:09.507Z,97323.88
2022-12-08T10:43:40.547Z,97321.31
2022-12-08T10:46:17.094Z,97320.31
2022-12-08T10:48:54.796Z,97322.00
2022-12-08T10:51:27.822Z,97316.84
2022-12-08T10:53:57.625Z,97305.66
2022-12-08T10:56:31.894Z,97306.69
2022-12-08T10:59:16.779Z,97313.25
2022-12-08T11:01:51.890Z,97303.19
2022-12-08T11:04:23.588Z,97299.81
2022-12-08T11:06:53.976Z,97296.34
2022-12-08T11:09:40.747Z,97290.22
2022-12-08T11:12:11.516Z,97287.91
2022-12-08T11:14:50.317Z,97286.06
2022-12-08T11:17:28.268Z,97273.28
2022-12-08T11:19:59.623Z,97267.94
2022-12-08T11:22:31.730Z,97275.06
2022-12-08T11:25:02.092Z,97273.31
2022-12-08T11:27:32.240Z,97257.09
2022-12-08T11:30:05.953Z,97262.03
2022-12-08T11:32:40.903Z,97255.44
2022-12-08T11:35:18.250Z,97266.63
2022-12-08T11:37:47.707Z,97272.53
2022-12-08T11:40:22.733Z,97253.00
2022-12-08T11:43:00.277Z,97257.22
2022-12-08T11:45:35.207Z,97247.78
2022-12-08T11:48:13.874Z,97248.38
2022-12-08T11:50:47.617Z,97254.28
2022-12-08T11:53:23.942Z,97245.78
2022-12-08T11:55:56.625Z,97248.25
2022-12-08T11:58:33.687Z,97264.25
2022-12-08T12:01:02.633Z,97263.63
2022-12-08T12:03:38.128Z,97244.97
2022-12-08T12:06:54.146Z,97245.09
2022-12-08T12:09:36.582Z,97238.47
2022-12-08T12:12:16.220Z,97246.25
2022-12-08T12:15:16.085Z,97230.91
2022-12-08T12:17:51.178Z,97225.06
2022-12-08T12:20:27.592Z,97246.22
2022-12-08T12:23:01.823Z,97231.84
2022-12-08T12:25:30.702Z,97235.28
2022-12-08T12:28:04.507Z,97235.13
2022-12-08T12:30:52.083Z,97231.09
2022-12-08T12:33:21.863Z,97238.78
2022-12-08T12:35:52.973Z,97237.13
2022-12-08T12:38:43.706Z,97242.22
2022-12-08T12:41:14.715Z,97241.47
2022-12-08T12:44:18.855Z,97238.72
2022-12-08T12:46:59.417Z,97227.00
2022-12-08T12:50:09.039Z,97234.66
2022-12-08T12:52:49.941Z,97231.19
2022-12-08T12:55:24.153Z,97223.53
2022-12-08T12:57:55.456Z,97234.50
2022-12-08T13:00:26.313Z,97225.22
2022-12-08T13:02:58.025Z,97216.81
2022-12-08T13:05:29.798Z,97215.88
2022-12-08T13:08:03.867Z,97221.75
2022-12-08T13:10:33.834Z,97223.63
2022-12-08T13:13:18.303Z,97219.38
2022-12-08T13:15:54.853Z,97224.44
2022-12-08T13:18:35.607Z,97210.94
2022-12-08T13:21:18.243Z,97215.22
2022-12-08T13:23:51.113Z,97207.53
2022-12-08T13:26:23.758Z,97218.47
2022-12-08T13:29:24.529Z,97212.63
2022-12-08T13:31:58.758Z,97203.28
2022-12-08T13:34:50.054Z,97182.84
2022-12-08T13:37:28.899Z,97194.72
2022-12-08T13:40:04.147Z,97197.25
2022-12-08T13:42:40.168Z,97196.41
2022-12-08T13:45:39.713Z,97200.75
2022-12-08T13:48:35.341Z,97195.72
2022-12-08T13:55:06.841Z,97200.81
2022-12-08T13:57:10.230Z,97198.22
2022-12-08T13:59:45.842Z,97211.84
2022-12-08T14:02:21.552Z,97202.47
2022-12-08T14:07:46.985Z,97206.69
2022-12-08T14:10:20.716Z,97199.97
2022-12-08T14:13:07.041Z,97215.28
2022-12-08T14:15:38.956Z,97213.59
2022-12-08T14:18:27.424Z,97203.47
2022-12-08T14:21:24.094Z,97208.50
2022-12-08T14:24:02.642Z,97204.34
2022-12-08T14:26:41.571Z,97207.66
2022-12-08T14:29:31.804Z,97193.41
2022-12-08T14:32:05.832Z,97205.28
2022-12-08T14:34:44.171Z,97203.53
2022-12-08T14:37:17.294Z,97202.69
2022-12-08T14:39:49.516Z,97193.44
2022-12-08T14:42:26.878Z,97187.56
2022-12-08T14:45:14.565Z,97189.25
2022-12-08T14:47:46.424Z,97196.94
2022-12-08T14:50:48.388Z,97189.25
2022-12-08T14:53:24.744Z,97184.25
2022-12-08T14:55:54.468Z,97182.63
2022-12-08T14:58:31.043Z,97195.19
2022-12-08T15:01:07.797Z,97196.13
2022-12-08T15:03:39.056Z,97194.47
2022-12-08T15:06:10.727Z,97200.38
2022-12-08T15:08:57.003Z,97201.25
2022-12-08T15:11:47.198Z,97212.28
2022-12-08T15:14:37.295Z,97203.00
2022-12-08T15:17:36.200Z,97201.22
2022-12-08T15:20:28.767Z,97183.47
2022-12-08T15:23:03.424Z,97196.19
2022-12-08T15:25:34.252Z,97197.06
2022-12-08T15:28:05.210Z,97183.66
2022-12-08T15:30:35.312Z,97199.69
2022-12-08T15:33:08.112Z,97193.75
2022-12-08T15:35:40.923Z,97174.44
2022-12-08T15:38:20.216Z,97196.41
2022-12-08T15:40:51.564Z,97198.88
2022-12-08T15:43:21.741Z,97195.53
2022-12-08T15:45:59.014Z,97201.44
2022-12-08T15:48:35.044Z,97192.22
2022-12-08T15:51:04.332Z,97197.25
2022-12-08T15:53:34.056Z,97199.84
2022-12-08T15:58:58.464Z,97185.47
2022-12-08T16:01:28.289Z,97199.00
2022-12-08T16:09:45.646Z,97193.81
2022-12-08T16:13:26.934Z,97196.34
2022-12-08T16:18:21.300Z,97191.28
2022-12-08T16:23:44.265Z,97192.13
2022-12-08T16:26:28.386Z,97196.31
2022-12-08T16:29:03.862Z,97189.66
2022-12-08T16:31:32.857Z,97196.38
2022-12-08T16:34:01.790Z,97182.16
2022-12-08T16:36:34.658Z,97185.44
2022-12-08T16:39:03.392Z,97190.50
2022-12-08T16:41:49.476Z,97185.38
2022-12-08T16:44:19.455Z,97190.50
2022-12-08T16:46:48.400Z,97169.41
2022-12-08T16:49:17.947Z,97183.75
2022-12-08T16:51:49.504Z,97187.13
2022-12-08T16:54:19.222Z,97182.03
2022-12-08T16:56:49.340Z,97187.13
2022-12-08T16:59:18.785Z,97195.53
2022-12-08T17:01:52.306Z,97178.75
2022-12-08T17:04:31.524Z,97199.78
2022-12-08T17:07:02.389Z,97193.84
2022-12-08T17:09:33.787Z,97175.28
2022-12-08T17:12:04.557Z,97180.38
2022-12-08T17:14:35.868Z,97178.72
2022-12-08T17:17:06.373Z,97186.31
2022-12-08T17:19:37.035Z,97181.25
2022-12-08T17:22:09.364Z,97181.31
2022-12-08T17:24:39.424Z,97186.25
2022-12-08T17:27:08.610Z,97190.50
2022-12-08T17:29:38.704Z,97183.75
2022-12-08T17:32:08.192Z,97185.41
2022-12-08T17:34:37.574Z,97181.13
2022-12-08T17:37:09.284Z,97171.06
2022-12-08T17:39:38.831Z,97181.22
2022-12-08T17:42:08.237Z,97183.66
2022-12-08T17:44:37.493Z,97183.81
2022-12-08T17:47:06.911Z,97184.75
2022-12-08T17:49:35.905Z,97199.97
2022-12-08T17:52:08.590Z,97182.22
2022-12-08T17:54:37.692Z,97185.69
2022-12-08T17:57:07.194Z,97187.38
2022-12-08T17:59:38.486Z,97191.66
2022-12-08T18:02:08.849Z,97183.28
2022-12-08T18:04:37.977Z,97181.50
2022-12-08T18:07:08.958Z,97189.16
2022-12-08T18:09:37.811Z,97199.28
2022-12-08T18:12:07.270Z,97178.19
2022-12-08T18:14:36.108Z,97197.53
2022-12-08T18:17:05.413Z,97189.03
2022-12-08T18:19:35.232Z,97182.31
2022-12-08T18:22:04.434Z,97187.38
2022-12-08T18:24:34.602Z,97168.03
2022-12-08T18:27:03.696Z,97192.47
2022-12-08T18:29:32.458Z,97182.34
2022-12-08T18:32:03.151Z,97184.91
2022-12-08T18:34:31.940Z,97194.13
2022-12-08T18:37:01.264Z,97174.75
2022-12-08T18:39:32.439Z,97162.16
2022-12-08T18:42:23.325Z,97183.19
2022-12-08T18:44:56.432Z,97174.84
2022-12-08T18:47:27.134Z,97184.09
2022-12-08T18:49:56.490Z,97152.13
2022-12-08T18:52:31.576Z,97158.81
2022-12-08T18:55:06.761Z,97170.50
2022-12-08T18:57:39.420Z,97162.19
2022-12-08T19:00:11.136Z,97174.03
2022-12-08T19:02:40.604Z,97172.44
2022-12-08T19:05:12.150Z,97175.78
2022-12-08T19:07:43.000Z,97182.63
2022-12-08T19:10:13.777Z,97159.94
2022-12-08T19:12:44.432Z,97165.81
2022-12-08T19:15:14.382Z,97184.41
2022-12-08T19:17:43.026Z,97174.97
2022-12-08T19:20:13.071Z,97173.31
2022-12-08T19:22:42.447Z,97185.13
2022-12-08T19:25:13.087Z,97161.53
2022-12-08T19:27:41.597Z,97170.88
2022-12-08T19:30:14.925Z,97187.69
2022-12-08T19:32:44.097Z,97183.53
2022-12-08T19:35:12.783Z,97183.53
2022-12-08T19:37:41.750Z,97156.56
2022-12-08T19:40:31.382Z,97175.88
2022-12-08T19:43:18.216Z,97180.16
2022-12-08T19:45:50.787Z,97175.97
2022-12-08T19:48:20.640Z,97173.47
2022-12-08T19:50:49.260Z,97149.06
2022-12-08T19:53:19.675Z,97148.19
2022-12-08T19:55:49.768Z,97172.66
2022-12-08T19:58:19.988Z,97157.56
2022-12-08T20:00:50.767Z,97185.38
2022-12-08T20:03:25.600Z,97174.41
2022-12-08T20:05:54.857Z,97173.50
2022-12-08T20:08:23.739Z,97168.50
2022-12-08T20:10:56.394Z,97170.13
2022-12-08T20:13:45.013Z,97170.19
2022-12-08T20:16:15.937Z,97168.47
2022-12-08T20:18:48.103Z,97167.66
2022-12-08T20:21:17.020Z,97170.13
2022-12-08T20:23:50.257Z,97176.81
2022-12-08T20:26:21.635Z,97174.38
2022-12-08T20:28:51.685Z,97165.06
2022-12-08T20:31:26.416Z,97174.28
2022-12-08T20:33:55.591Z,97165.06
2022-12-08T20:36:28.177Z,97158.34
2022-12-08T20:38:59.980Z,97174.34
2022-12-08T20:41:29.008Z,97159.19
2022-12-08T20:43:59.398Z,97160.03
2022-12-08T20:46:29.545Z,97160.88
2022-12-08T20:49:01.857Z,97165.13
2022-12-08T20:51:32.126Z,97166.78
2022-12-08T20:54:01.572Z,97154.97
2022-12-08T20:56:32.152Z,97167.66
2022-12-08T20:59:01.477Z,97174.38
2022-12-08T21:01:33.228Z,97170.97
2022-12-08T21:04:02.897Z,97165.06
2022-12-08T21:06:32.680Z,97153.25
2022-12-08T21:09:01.656Z,97169.31
2022-12-08T21:11:30.397Z,97160.88
2022-12-08T21:14:00.136Z,97171.00
2022-12-08T21:16:29.255Z,97160.06
2022-12-08T21:19:00.623Z,97167.59
2022-12-08T21:21:29.490Z,97168.44
2022-12-08T21:23:58.518Z,97164.25
2022-12-08T21:26:27.777Z,97172.66
2022-12-08T21:28:58.933Z,97157.53
2022-12-08T21:31:29.578Z,97159.25
2022-12-08T21:34:00.888Z,97170.19
2022-12-08T21:36:30.151Z,97165.94
2022-12-08T21:39:03.008Z,97149.94
2022-12-08T21:41:49.683Z,97171.91
2022-12-08T21:44:20.521Z,97171.09
2022-12-08T21:46:49.950Z,97167.69
2022-12-08T21:49:20.274Z,97172.78
2022-12-08T21:51:48.758Z,97160.13
2022-12-08T21:54:19.174Z,97176.94
2022-12-08T21:56:49.751Z,97155.84
2022-12-08T21:59:21.579Z,97163.41
2022-12-08T22:01:50.848Z,97160.88
2022-12-08T22:04:24.610Z,97155.84
2022-12-08T22:06:54.201Z,97165.16
2022-12-08T22:09:23.672Z,97168.53
2022-12-08T22:11:55.267Z,97167.72
2022-12-08T22:14:24.679Z,97161.84
2022-12-08T22:16:53.976Z,97159.31
2022-12-08T22:19:25.662Z,97158.50
2022-12-08T22:21:55.086Z,97145.00
2022-12-08T22:24:23.725Z,97139.91
2022-12-08T22:26:52.543Z,97138.22
2022-12-08T22:29:22.185Z,97144.97
2022-12-08T22:31:50.854Z,97134.88
2022-12-08T22:34:19.746Z,97145.88
2022-12-08T22:36:50.555Z,97149.22
2022-12-08T22:39:19.368Z,97130.72
2022-12-08T22:41:48.130Z,97140.81
2022-12-08T22:44:17.424Z,97134.94
2022-12-08T22:46:47.229Z,97149.25
2022-12-08T22:49:15.985Z,97140.81
2022-12-08T22:51:45.581Z,97130.72
2022-12-08T22:54:16.088Z,97132.44
2022-12-08T22:56:44.999Z,97125.66
2022-12-08T22:59:15.101Z,97115.59
2022-12-08T23:01:44.437Z,97127.38
2022-12-08T23:04:17.675Z,97128.22
2022-12-08T23:06:47.331Z,97130.75
2022-12-08T23:09:18.233Z,97149.31
2022-12-08T23:11:47.145Z,97129.06
2022-12-08T23:14:17.778Z,97130.75
2022-12-08T23:16:47.189Z,97129.94
2022-12-08T23:19:16.995Z,97134.97
2022-12-08T23:21:45.740Z,97137.50
2022-12-08T23:24:15.436Z,97124.84
2022-12-08T23:26:46.157Z,97116.41
2022-12-08T23:29:14.893Z,97121.47
2022-12-08T23:31:44.027Z,97122.28
2022-12-08T23:34:13.902Z,97120.59
2022-12-08T23:36:42.871Z,97124.81
2022-12-08T23:39:13.304Z,97108.75
2022-12-08T23:41:42.300Z,97122.22
2022-12-08T23:44:12.957Z,97118.84
2022-12-08T23:46:42.489Z,97109.59
2022-12-08T23:49:11.468Z,97112.13
2022-12-08T23:51:40.360Z,97101.13
2022-12-08T23:54:09.441Z,97109.56
2022-12-08T23:56:38.256Z,97095.22
2022-12-08T23:59:07.609Z,97109.53
